sensor_id;sensor_type;location;lat;lon;timestamp;P1;durP1;ratioP1;P2;durP2;ratioP2
25915;SDS011;13719;48.188;11.618;2023-08-06T00:00:47;5.18;;;3.30;;
25915;SDS011;13719;48.188;11.618;2023-08-06T00:03:17;5.72;;;3.35;;
25915;SDS011;13719;48.188;11.618;2023-08-06T00:05:46;4.15;;;2.85;;
25915;SDS011;13719;48.188;11.618;2023-08-06T00:08:14;5.35;;;3.15;;
25915;SDS011;13719;48.188;11.618;2023-08-06T00:10:43;3.83;;;3.03;;
25915;SDS011;13719;48.188;11.618;2023-08-06T00:13:11;5.35;;;3.22;;
25915;SDS011;13719;48.188;11.618;2023-08-06T00:15:39;3.67;;;2.60;;
25915;SDS011;13719;48.188;11.618;2023-08-06T00:18:08;5.47;;;3.20;;
25915;SDS011;13719;48.188;11.618;2023-08-06T00:20:39;4.15;;;2.67;;
25915;SDS011;13719;48.188;11.618;2023-08-06T00:23:08;6.32;;;2.95;;
25915;SDS011;13719;48.188;11.618;2023-08-06T00:25:36;7.43;;;2.45;;
25915;SDS011;13719;48.188;11.618;2023-08-06T00:28:04;3.78;;;2.47;;
25915;SDS011;13719;48.188;11.618;2023-08-06T00:30:33;7.13;;;2.58;;
25915;SDS011;13719;48.188;11.618;2023-08-06T00:33:02;6.03;;;3.33;;
25915;SDS011;13719;48.188;11.618;2023-08-06T00:35:30;4.85;;;2.72;;
25915;SDS011;13719;48.188;11.618;2023-08-06T00:38:00;5.53;;;3.28;;
25915;SDS011;13719;48.188;11.618;2023-08-06T00:40:28;4.95;;;2.67;;
25915;SDS011;13719;48.188;11.618;2023-08-06T00:42:57;3.63;;;2.90;;
25915;SDS011;13719;48.188;11.618;2023-08-06T00:45:25;5.85;;;3.00;;
25915;SDS011;13719;48.188;11.618;2023-08-06T00:47:54;3.20;;;2.40;;
25915;SDS011;13719;48.188;11.618;2023-08-06T00:50:22;8.38;;;2.45;;
25915;SDS011;13719;48.188;11.618;2023-08-06T00:52:51;5.28;;;2.40;;
25915;SDS011;13719;48.188;11.618;2023-08-06T00:55:20;4.30;;;2.28;;
25915;SDS011;13719;48.188;11.618;2023-08-06T00:57:49;7.03;;;2.30;;
25915;SDS011;13719;48.188;11.618;2023-08-06T01:00:19;3.15;;;2.15;;
25915;SDS011;13719;48.188;11.618;2023-08-06T01:02:48;4.00;;;1.77;;
25915;SDS011;13719;48.188;11.618;2023-08-06T01:05:16;3.35;;;1.90;;
25915;SDS011;13719;48.188;11.618;2023-08-06T01:07:48;3.80;;;2.00;;
25915;SDS011;13719;48.188;11.618;2023-08-06T01:10:25;4.17;;;2.03;;
25915;SDS011;13719;48.188;11.618;2023-08-06T01:13:03;4.20;;;2.08;;
25915;SDS011;13719;48.188;11.618;2023-08-06T01:15:35;3.70;;;2.00;;
25915;SDS011;13719;48.188;11.618;2023-08-06T01:18:04;3.92;;;2.20;;
25915;SDS011;13719;48.188;11.618;2023-08-06T01:20:34;3.67;;;2.40;;
25915;SDS011;13719;48.188;11.618;2023-08-06T01:23:02;3.35;;;1.73;;
25915;SDS011;13719;48.188;11.618;2023-08-06T01:25:33;4.63;;;2.28;;
25915;SDS011;13719;48.188;11.618;2023-08-06T01:28:04;4.97;;;1.98;;
25915;SDS011;13719;48.188;11.618;2023-08-06T01:30:33;3.67;;;2.05;;
25915;SDS011;13719;48.188;11.618;2023-08-06T01:33:03;2.95;;;2.30;;
25915;SDS011;13719;48.188;11.618;2023-08-06T01:35:34;3.88;;;2.47;;
25915;SDS011;13719;48.188;11.618;2023-08-06T01:38:03;5.57;;;2.20;;
25915;SDS011;13719;48.188;11.618;2023-08-06T01:40:31;4.72;;;2.17;;
25915;SDS011;13719;48.188;11.618;2023-08-06T01:43:01;3.78;;;2.28;;
25915;SDS011;13719;48.188;11.618;2023-08-06T01:45:29;5.55;;;2.85;;
25915;SDS011;13719;48.188;11.618;2023-08-06T01:47:57;4.47;;;2.50;;
25915;SDS011;13719;48.188;11.618;2023-08-06T01:50:26;4.75;;;2.78;;
25915;SDS011;13719;48.188;11.618;2023-08-06T01:52:55;5.13;;;2.75;;
25915;SDS011;13719;48.188;11.618;2023-08-06T01:55:24;4.30;;;2.60;;
25915;SDS011;13719;48.188;11.618;2023-08-06T01:57:52;6.35;;;2.40;;
25915;SDS011;13719;48.188;11.618;2023-08-06T02:00:20;3.60;;;2.28;;
25915;SDS011;13719;48.188;11.618;2023-08-06T02:02:49;5.10;;;2.80;;
25915;SDS011;13719;48.188;11.618;2023-08-06T02:05:18;4.25;;;2.35;;
25915;SDS011;13719;48.188;11.618;2023-08-06T02:07:47;3.60;;;2.50;;
25915;SDS011;13719;48.188;11.618;2023-08-06T02:10:16;4.40;;;2.47;;
25915;SDS011;13719;48.188;11.618;2023-08-06T02:12:45;4.10;;;2.47;;
25915;SDS011;13719;48.188;11.618;2023-08-06T02:15:13;6.85;;;2.40;;
25915;SDS011;13719;48.188;11.618;2023-08-06T02:17:42;3.53;;;2.33;;
25915;SDS011;13719;48.188;11.618;2023-08-06T02:20:10;3.45;;;2.20;;
25915;SDS011;13719;48.188;11.618;2023-08-06T02:22:39;6.47;;;2.80;;
25915;SDS011;13719;48.188;11.618;2023-08-06T02:25:07;4.90;;;2.42;;
25915;SDS011;13719;48.188;11.618;2023-08-06T02:27:38;3.17;;;2.20;;
25915;SDS011;13719;48.188;11.618;2023-08-06T02:30:06;3.08;;;1.95;;
25915;SDS011;13719;48.188;11.618;2023-08-06T02:32:35;5.43;;;2.28;;
25915;SDS011;13719;48.188;11.618;2023-08-06T02:35:03;3.50;;;2.15;;
25915;SDS011;13719;48.188;11.618;2023-08-06T02:37:33;2.72;;;2.13;;
25915;SDS011;13719;48.188;11.618;2023-08-06T02:40:01;2.95;;;1.95;;
25915;SDS011;13719;48.188;11.618;2023-08-06T02:42:29;3.35;;;2.10;;
25915;SDS011;13719;48.188;11.618;2023-08-06T02:44:59;2.95;;;2.05;;
25915;SDS011;13719;48.188;11.618;2023-08-06T02:47:27;2.70;;;1.67;;
25915;SDS011;13719;48.188;11.618;2023-08-06T02:49:58;3.00;;;1.83;;
25915;SDS011;13719;48.188;11.618;2023-08-06T02:52:26;2.75;;;2.10;;
25915;SDS011;13719;48.188;11.618;2023-08-06T02:54:55;5.90;;;1.98;;
25915;SDS011;13719;48.188;11.618;2023-08-06T02:57:26;2.40;;;1.98;;
25915;SDS011;13719;48.188;11.618;2023-08-06T02:59:54;3.35;;;1.77;;
25915;SDS011;13719;48.188;11.618;2023-08-06T03:02:24;2.67;;;2.00;;
25915;SDS011;13719;48.188;11.618;2023-08-06T03:04:52;4.70;;;2.08;;
25915;SDS011;13719;48.188;11.618;2023-08-06T03:07:21;2.55;;;1.75;;
25915;SDS011;13719;48.188;11.618;2023-08-06T03:09:49;3.65;;;2.08;;
25915;SDS011;13719;48.188;11.618;2023-08-06T03:12:18;5.93;;;1.90;;
25915;SDS011;13719;48.188;11.618;2023-08-06T03:14:46;2.53;;;1.77;;
25915;SDS011;13719;48.188;11.618;2023-08-06T03:17:14;2.30;;;1.80;;
25915;SDS011;13719;48.188;11.618;2023-08-06T03:19:44;6.93;;;1.83;;
25915;SDS011;13719;48.188;11.618;2023-08-06T03:22:12;3.83;;;1.90;;
25915;SDS011;13719;48.188;11.618;2023-08-06T03:24:41;2.95;;;1.70;;
25915;SDS011;13719;48.188;11.618;2023-08-06T03:27:11;2.88;;;1.58;;
25915;SDS011;13719;48.188;11.618;2023-08-06T03:29:40;3.05;;;1.98;;
25915;SDS011;13719;48.188;11.618;2023-08-06T03:32:08;3.33;;;1.77;;
25915;SDS011;13719;48.188;11.618;2023-08-06T03:34:36;4.40;;;1.90;;
25915;SDS011;13719;48.188;11.618;2023-08-06T03:37:06;3.00;;;1.63;;
25915;SDS011;13719;48.188;11.618;2023-08-06T03:39:34;3.05;;;1.92;;
25915;SDS011;13719;48.188;11.618;2023-08-06T03:42:03;2.58;;;1.60;;
25915;SDS011;13719;48.188;11.618;2023-08-06T03:44:31;2.75;;;1.83;;
25915;SDS011;13719;48.188;11.618;2023-08-06T03:47:00;2.70;;;1.40;;
25915;SDS011;13719;48.188;11.618;2023-08-06T03:49:28;3.03;;;1.60;;
25915;SDS011;13719;48.188;11.618;2023-08-06T03:51:56;2.70;;;1.48;;
25915;SDS011;13719;48.188;11.618;2023-08-06T03:54:26;2.15;;;1.63;;
25915;SDS011;13719;48.188;11.618;2023-08-06T03:56:55;2.22;;;1.30;;
25915;SDS011;13719;48.188;11.618;2023-08-06T03:59:23;2.33;;;1.55;;
25915;SDS011;13719;48.188;11.618;2023-08-06T04:01:52;3.20;;;1.55;;
25915;SDS011;13719;48.188;11.618;2023-08-06T04:04:20;2.25;;;1.52;;
25915;SDS011;13719;48.188;11.618;2023-08-06T04:06:49;3.85;;;1.63;;
25915;SDS011;13719;48.188;11.618;2023-08-06T04:09:17;2.00;;;1.45;;
25915;SDS011;13719;48.188;11.618;2023-08-06T04:11:47;3.45;;;1.70;;
25915;SDS011;13719;48.188;11.618;2023-08-06T04:14:16;2.38;;;1.60;;
25915;SDS011;13719;48.188;11.618;2023-08-06T04:16:44;2.40;;;1.50;;
25915;SDS011;13719;48.188;11.618;2023-08-06T04:19:13;1.40;;;1.23;;
25915;SDS011;13719;48.188;11.618;2023-08-06T04:21:41;4.05;;;1.75;;
25915;SDS011;13719;48.188;11.618;2023-08-06T04:24:10;1.98;;;1.10;;
25915;SDS011;13719;48.188;11.618;2023-08-06T04:26:38;4.30;;;1.60;;
25915;SDS011;13719;48.188;11.618;2023-08-06T04:29:08;6.30;;;1.65;;
25915;SDS011;13719;48.188;11.618;2023-08-06T04:31:36;4.35;;;1.58;;
25915;SDS011;13719;48.188;11.618;2023-08-06T04:34:04;2.78;;;1.48;;
25915;SDS011;13719;48.188;11.618;2023-08-06T04:36:34;6.90;;;1.75;;
25915;SDS011;13719;48.188;11.618;2023-08-06T04:39:02;2.70;;;1.58;;
25915;SDS011;13719;48.188;11.618;2023-08-06T04:41:31;2.67;;;1.77;;
25915;SDS011;13719;48.188;11.618;2023-08-06T04:43:59;1.60;;;1.10;;
25915;SDS011;13719;48.188;11.618;2023-08-06T04:46:29;2.30;;;1.58;;
25915;SDS011;13719;48.188;11.618;2023-08-06T04:48:57;2.33;;;1.48;;
25915;SDS011;13719;48.188;11.618;2023-08-06T04:51:26;2.90;;;1.55;;
25915;SDS011;13719;48.188;11.618;2023-08-06T04:53:54;3.13;;;1.60;;
25915;SDS011;13719;48.188;11.618;2023-08-06T04:56:22;1.92;;;1.45;;
25915;SDS011;13719;48.188;11.618;2023-08-06T04:58:53;2.67;;;1.27;;
25915;SDS011;13719;48.188;11.618;2023-08-06T05:01:21;4.43;;;1.60;;
25915;SDS011;13719;48.188;11.618;2023-08-06T05:03:52;2.67;;;1.60;;
25915;SDS011;13719;48.188;11.618;2023-08-06T05:06:21;2.47;;;1.67;;
25915;SDS011;13719;48.188;11.618;2023-08-06T05:08:49;1.73;;;1.25;;
25915;SDS011;13719;48.188;11.618;2023-08-06T05:11:17;2.00;;;1.35;;
25915;SDS011;13719;48.188;11.618;2023-08-06T05:13:46;3.92;;;1.70;;
25915;SDS011;13719;48.188;11.618;2023-08-06T05:16:14;5.25;;;1.52;;
25915;SDS011;13719;48.188;11.618;2023-08-06T05:18:42;1.20;;;0.90;;
25915;SDS011;13719;48.188;11.618;2023-08-06T05:21:12;8.10;;;2.08;;
25915;SDS011;13719;48.188;11.618;2023-08-06T05:23:42;3.03;;;1.80;;
25915;SDS011;13719;48.188;11.618;2023-08-06T05:26:11;2.33;;;1.77;;
25915;SDS011;13719;48.188;11.618;2023-08-06T05:28:40;3.15;;;1.50;;
25915;SDS011;13719;48.188;11.618;2023-08-06T05:31:09;2.58;;;1.50;;
25915;SDS011;13719;48.188;11.618;2023-08-06T05:33:37;4.43;;;1.50;;
25915;SDS011;13719;48.188;11.618;2023-08-06T05:36:06;2.75;;;1.45;;
25915;SDS011;13719;48.188;11.618;2023-08-06T05:38:35;2.35;;;1.20;;
25915;SDS011;13719;48.188;11.618;2023-08-06T05:41:04;2.65;;;1.40;;
25915;SDS011;13719;48.188;11.618;2023-08-06T05:43:32;3.83;;;1.52;;
25915;SDS011;13719;48.188;11.618;2023-08-06T05:46:00;4.57;;;1.50;;
25915;SDS011;13719;48.188;11.618;2023-08-06T05:48:30;2.20;;;1.45;;
25915;SDS011;13719;48.188;11.618;2023-08-06T05:50:59;5.78;;;1.60;;
25915;SDS011;13719;48.188;11.618;2023-08-06T05:53:27;2.15;;;1.30;;
25915;SDS011;13719;48.188;11.618;2023-08-06T05:55:57;2.88;;;1.40;;
25915;SDS011;13719;48.188;11.618;2023-08-06T05:58:25;3.35;;;1.20;;
25915;SDS011;13719;48.188;11.618;2023-08-06T06:00:55;3.92;;;1.40;;
25915;SDS011;13719;48.188;11.618;2023-08-06T06:03:23;1.92;;;1.40;;
25915;SDS011;13719;48.188;11.618;2023-08-06T06:05:52;1.83;;;1.35;;
25915;SDS011;13719;48.188;11.618;2023-08-06T06:08:20;2.53;;;1.48;;
25915;SDS011;13719;48.188;11.618;2023-08-06T06:10:49;3.30;;;1.30;;
25915;SDS011;13719;48.188;11.618;2023-08-06T06:13:19;2.50;;;1.20;;
25915;SDS011;13719;48.188;11.618;2023-08-06T06:15:47;3.05;;;1.63;;
25915;SDS011;13719;48.188;11.618;2023-08-06T06:18:15;3.25;;;1.35;;
25915;SDS011;13719;48.188;11.618;2023-08-06T06:20:44;2.30;;;1.60;;
25915;SDS011;13719;48.188;11.618;2023-08-06T06:23:12;2.30;;;1.27;;
25915;SDS011;13719;48.188;11.618;2023-08-06T06:25:42;4.88;;;1.45;;
25915;SDS011;13719;48.188;11.618;2023-08-06T06:28:10;2.25;;;1.50;;
25915;SDS011;13719;48.188;11.618;2023-08-06T06:30:40;3.92;;;1.75;;
25915;SDS011;13719;48.188;11.618;2023-08-06T06:33:09;2.25;;;1.42;;
25915;SDS011;13719;48.188;11.618;2023-08-06T06:35:37;3.30;;;1.17;;
25915;SDS011;13719;48.188;11.618;2023-08-06T06:38:05;2.80;;;1.38;;
25915;SDS011;13719;48.188;11.618;2023-08-06T06:40:34;4.35;;;1.38;;
25915;SDS011;13719;48.188;11.618;2023-08-06T06:43:02;1.58;;;1.10;;
25915;SDS011;13719;48.188;11.618;2023-08-06T06:45:30;1.35;;;1.00;;
25915;SDS011;13719;48.188;11.618;2023-08-06T06:48:00;2.60;;;1.20;;
25915;SDS011;13719;48.188;11.618;2023-08-06T06:50:29;3.28;;;0.90;;
25915;SDS011;13719;48.188;11.618;2023-08-06T06:52:57;3.35;;;1.40;;
25915;SDS011;13719;48.188;11.618;2023-08-06T06:55:25;2.72;;;1.20;;
25915;SDS011;13719;48.188;11.618;2023-08-06T06:57:54;3.83;;;1.48;;
25915;SDS011;13719;48.188;11.618;2023-08-06T07:00:22;2.47;;;1.10;;
25915;SDS011;13719;48.188;11.618;2023-08-06T07:02:50;2.90;;;1.10;;
25915;SDS011;13719;48.188;11.618;2023-08-06T07:05:20;3.28;;;1.30;;
25915;SDS011;13719;48.188;11.618;2023-08-06T07:07:49;2.20;;;1.38;;
25915;SDS011;13719;48.188;11.618;2023-08-06T07:10:17;5.43;;;1.20;;
25915;SDS011;13719;48.188;11.618;2023-08-06T07:12:46;1.20;;;0.70;;
25915;SDS011;13719;48.188;11.618;2023-08-06T07:15:14;1.60;;;0.85;;
25915;SDS011;13719;48.188;11.618;2023-08-06T07:17:43;2.97;;;1.05;;
25915;SDS011;13719;48.188;11.618;2023-08-06T07:20:12;6.85;;;1.08;;
25915;SDS011;13719;48.188;11.618;2023-08-06T07:22:42;1.73;;;1.00;;
25915;SDS011;13719;48.188;11.618;2023-08-06T07:25:10;3.20;;;0.63;;
25915;SDS011;13719;48.188;11.618;2023-08-06T07:27:39;2.20;;;0.70;;
25915;SDS011;13719;48.188;11.618;2023-08-06T07:30:07;2.38;;;0.70;;
25915;SDS011;13719;48.188;11.618;2023-08-06T07:32:37;2.88;;;0.70;;
25915;SDS011;13719;48.188;11.618;2023-08-06T07:35:06;0.98;;;0.60;;
25915;SDS011;13719;48.188;11.618;2023-08-06T07:37:38;1.23;;;0.57;;
25915;SDS011;13719;48.188;11.618;2023-08-06T07:40:09;1.63;;;0.60;;
25915;SDS011;13719;48.188;11.618;2023-08-06T07:42:37;0.80;;;0.40;;
25915;SDS011;13719;48.188;11.618;2023-08-06T07:45:06;1.90;;;0.77;;
25915;SDS011;13719;48.188;11.618;2023-08-06T07:47:35;1.90;;;0.75;;
25915;SDS011;13719;48.188;11.618;2023-08-06T07:50:04;2.10;;;0.50;;
25915;SDS011;13719;48.188;11.618;2023-08-06T07:52:32;2.78;;;0.70;;
25915;SDS011;13719;48.188;11.618;2023-08-06T07:55:01;0.68;;;0.43;;
25915;SDS011;13719;48.188;11.618;2023-08-06T07:57:32;1.65;;;0.77;;
25915;SDS011;13719;48.188;11.618;2023-08-06T08:00:01;2.83;;;0.65;;
25915;SDS011;13719;48.188;11.618;2023-08-06T08:02:30;0.70;;;0.50;;
25915;SDS011;13719;48.188;11.618;2023-08-06T08:04:58;1.63;;;0.68;;
25915;SDS011;13719;48.188;11.618;2023-08-06T08:07:26;0.60;;;0.40;;
25915;SDS011;13719;48.188;11.618;2023-08-06T08:09:56;1.73;;;0.70;;
25915;SDS011;13719;48.188;11.618;2023-08-06T08:12:25;2.33;;;0.65;;
25915;SDS011;13719;48.188;11.618;2023-08-06T08:14:55;1.20;;;0.50;;
25915;SDS011;13719;48.188;11.618;2023-08-06T08:17:23;2.60;;;0.70;;
25915;SDS011;13719;48.188;11.618;2023-08-06T08:19:51;2.72;;;0.80;;
25915;SDS011;13719;48.188;11.618;2023-08-06T08:22:20;1.75;;;0.73;;
25915;SDS011;13719;48.188;11.618;2023-08-06T08:24:48;2.25;;;0.60;;
25915;SDS011;13719;48.188;11.618;2023-08-06T08:27:16;1.23;;;0.73;;
25915;SDS011;13719;48.188;11.618;2023-08-06T08:29:45;2.20;;;0.70;;
25915;SDS011;13719;48.188;11.618;2023-08-06T08:32:15;0.80;;;0.57;;
25915;SDS011;13719;48.188;11.618;2023-08-06T08:34:43;3.75;;;0.70;;
25915;SDS011;13719;48.188;11.618;2023-08-06T08:37:12;3.47;;;0.60;;
25915;SDS011;13719;48.188;11.618;2023-08-06T08:39:41;0.82;;;0.50;;
25915;SDS011;13719;48.188;11.618;2023-08-06T08:42:10;0.50;;;0.43;;
25915;SDS011;13719;48.188;11.618;2023-08-06T08:44:38;1.88;;;0.60;;
25915;SDS011;13719;48.188;11.618;2023-08-06T08:47:08;1.40;;;0.45;;
25915;SDS011;13719;48.188;11.618;2023-08-06T08:49:38;0.50;;;0.40;;
25915;SDS011;13719;48.188;11.618;2023-08-06T08:52:07;0.40;;;0.30;;
25915;SDS011;13719;48.188;11.618;2023-08-06T08:54:37;4.38;;;0.93;;
25915;SDS011;13719;48.188;11.618;2023-08-06T08:57:05;0.47;;;0.30;;
25915;SDS011;13719;48.188;11.618;2023-08-06T08:59:34;0.75;;;0.30;;
25915;SDS011;13719;48.188;11.618;2023-08-06T09:02:02;2.20;;;0.30;;
25915;SDS011;13719;48.188;11.618;2023-08-06T09:04:31;0.80;;;0.52;;
25915;SDS011;13719;48.188;11.618;2023-08-06T09:07:03;1.95;;;0.30;;
25915;SDS011;13719;48.188;11.618;2023-08-06T09:09:33;0.25;;;0.20;;
25915;SDS011;13719;48.188;11.618;2023-08-06T09:12:05;0.90;;;0.32;;
25915;SDS011;13719;48.188;11.618;2023-08-06T09:14:36;0.57;;;0.30;;
25915;SDS011;13719;48.188;11.618;2023-08-06T09:17:04;1.65;;;0.43;;
25915;SDS011;13719;48.188;11.618;2023-08-06T09:19:33;1.65;;;0.30;;
25915;SDS011;13719;48.188;11.618;2023-08-06T09:22:03;0.20;;;0.20;;
25915;SDS011;13719;48.188;11.618;2023-08-06T09:24:38;0.63;;;0.30;;
25915;SDS011;13719;48.188;11.618;2023-08-06T09:27:10;0.20;;;0.20;;
25915;SDS011;13719;48.188;11.618;2023-08-06T09:29:40;0.30;;;0.22;;
25915;SDS011;13719;48.188;11.618;2023-08-06T09:32:09;2.28;;;0.30;;
25915;SDS011;13719;48.188;11.618;2023-08-06T09:34:38;0.20;;;0.20;;
25915;SDS011;13719;48.188;11.618;2023-08-06T09:37:09;1.67;;;0.20;;
25915;SDS011;13719;48.188;11.618;2023-08-06T09:39:38;0.20;;;0.20;;
25915;SDS011;13719;48.188;11.618;2023-08-06T09:42:07;0.43;;;0.17;;
25915;SDS011;13719;48.188;11.618;2023-08-06T09:44:36;0.13;;;0.08;;
25915;SDS011;13719;48.188;11.618;2023-08-06T09:47:05;0.40;;;0.20;;
25915;SDS011;13719;48.188;11.618;2023-08-06T09:49:40;0.17;;;0.10;;
25915;SDS011;13719;48.188;11.618;2023-08-06T09:52:12;0.98;;;0.38;;
25915;SDS011;13719;48.188;11.618;2023-08-06T09:54:42;0.32;;;0.30;;
25915;SDS011;13719;48.188;11.618;2023-08-06T09:57:12;0.68;;;0.13;;
25915;SDS011;13719;48.188;11.618;2023-08-06T09:59:40;0.77;;;0.20;;
25915;SDS011;13719;48.188;11.618;2023-08-06T10:02:12;1.55;;;0.40;;
25915;SDS011;13719;48.188;11.618;2023-08-06T10:04:42;0.50;;;0.20;;
25915;SDS011;13719;48.188;11.618;2023-08-06T10:07:22;0.20;;;0.15;;
25915;SDS011;13719;48.188;11.618;2023-08-06T10:09:51;0.10;;;0.10;;
25915;SDS011;13719;48.188;11.618;2023-08-06T10:12:19;0.38;;;0.20;;
25915;SDS011;13719;48.188;11.618;2023-08-06T10:14:48;0.75;;;0.20;;
25915;SDS011;13719;48.188;11.618;2023-08-06T10:17:18;0.45;;;0.25;;
25915;SDS011;13719;48.188;11.618;2023-08-06T10:19:46;0.13;;;0.10;;
25915;SDS011;13719;48.188;11.618;2023-08-06T10:22:15;0.90;;;0.20;;
25915;SDS011;13719;48.188;11.618;2023-08-06T10:24:52;0.75;;;0.30;;
25915;SDS011;13719;48.188;11.618;2023-08-06T10:27:22;0.57;;;0.20;;
25915;SDS011;13719;48.188;11.618;2023-08-06T10:29:50;0.30;;;0.30;;
25915;SDS011;13719;48.188;11.618;2023-08-06T10:32:18;0.82;;;0.30;;
25915;SDS011;13719;48.188;11.618;2023-08-06T10:34:55;0.10;;;0.10;;
25915;SDS011;13719;48.188;11.618;2023-08-06T10:37:24;0.10;;;0.10;;
25915;SDS011;13719;48.188;11.618;2023-08-06T10:39:54;0.10;;;0.10;;
25915;SDS011;13719;48.188;11.618;2023-08-06T10:42:22;0.85;;;0.10;;
25915;SDS011;13719;48.188;11.618;2023-08-06T10:47:42;0.00;;;0.00;;
25915;SDS011;13719;48.188;11.618;2023-08-06T10:50:11;0.43;;;0.20;;
25915;SDS011;13719;48.188;11.618;2023-08-06T10:52:39;0.08;;;0.03;;
25915;SDS011;13719;48.188;11.618;2023-08-06T10:55:09;0.82;;;0.20;;
25915;SDS011;13719;48.188;11.618;2023-08-06T10:57:38;0.13;;;0.10;;
25915;SDS011;13719;48.188;11.618;2023-08-06T11:00:07;0.43;;;0.20;;
25915;SDS011;13719;48.188;11.618;2023-08-06T11:02:42;2.35;;;0.10;;
25915;SDS011;13719;48.188;11.618;2023-08-06T11:05:11;0.55;;;0.00;;
25915;SDS011;13719;48.188;11.618;2023-08-06T11:07:40;1.23;;;0.20;;
25915;SDS011;13719;48.188;11.618;2023-08-06T11:10:10;0.32;;;0.10;;
25915;SDS011;13719;48.188;11.618;2023-08-06T11:12:39;0.63;;;0.20;;
25915;SDS011;13719;48.188;11.618;2023-08-06T11:15:07;0.10;;;0.10;;
25915;SDS011;13719;48.188;11.618;2023-08-06T11:17:39;1.27;;;0.13;;
25915;SDS011;13719;48.188;11.618;2023-08-06T11:20:08;0.32;;;0.05;;
25915;SDS011;13719;48.188;11.618;2023-08-06T11:22:37;0.82;;;0.20;;
25915;SDS011;13719;48.188;11.618;2023-08-06T11:25:06;0.25;;;0.10;;
25915;SDS011;13719;48.188;11.618;2023-08-06T11:27:36;0.00;;;0.00;;
25915;SDS011;13719;48.188;11.618;2023-08-06T11:30:05;0.17;;;0.17;;
25915;SDS011;13719;48.188;11.618;2023-08-06T11:32:33;0.35;;;0.10;;
25915;SDS011;13719;48.188;11.618;2023-08-06T11:35:13;0.20;;;0.10;;
25915;SDS011;13719;48.188;11.618;2023-08-06T11:37:43;0.08;;;0.00;;
25915;SDS011;13719;48.188;11.618;2023-08-06T11:40:13;0.30;;;0.10;;
25915;SDS011;13719;48.188;11.618;2023-08-06T11:42:46;0.10;;;0.10;;
25915;SDS011;13719;48.188;11.618;2023-08-06T11:45:15;0.10;;;0.10;;
25915;SDS011;13719;48.188;11.618;2023-08-06T11:47:49;0.00;;;0.00;;
25915;SDS011;13719;48.188;11.618;2023-08-06T11:50:21;0.00;;;0.00;;
25915;SDS011;13719;48.188;11.618;2023-08-06T11:52:52;2.08;;;0.28;;
25915;SDS011;13719;48.188;11.618;2023-08-06T11:55:22;2.83;;;0.20;;
25915;SDS011;13719;48.188;11.618;2023-08-06T11:57:52;0.00;;;0.00;;
25915;SDS011;13719;48.188;11.618;2023-08-06T12:00:22;0.10;;;0.10;;
25915;SDS011;13719;48.188;11.618;2023-08-06T12:02:51;0.05;;;0.05;;
25915;SDS011;13719;48.188;11.618;2023-08-06T12:05:21;0.17;;;0.10;;
25915;SDS011;13719;48.188;11.618;2023-08-06T12:07:51;0.35;;;0.10;;
25915;SDS011;13719;48.188;11.618;2023-08-06T12:10:20;0.40;;;0.20;;
25915;SDS011;13719;48.188;11.618;2023-08-06T12:12:48;0.00;;;0.00;;
25915;SDS011;13719;48.188;11.618;2023-08-06T12:15:18;0.10;;;0.10;;
25915;SDS011;13719;48.188;11.618;2023-08-06T12:17:47;0.60;;;0.25;;
25915;SDS011;13719;48.188;11.618;2023-08-06T12:20:15;0.10;;;0.10;;
25915;SDS011;13719;48.188;11.618;2023-08-06T12:22:44;0.15;;;0.15;;
25915;SDS011;13719;48.188;11.618;2023-08-06T12:25:13;0.55;;;0.20;;
25915;SDS011;13719;48.188;11.618;2023-08-06T12:27:42;0.32;;;0.10;;
25915;SDS011;13719;48.188;11.618;2023-08-06T12:30:10;0.10;;;0.10;;
25915;SDS011;13719;48.188;11.618;2023-08-06T12:32:41;0.00;;;0.00;;
25915;SDS011;13719;48.188;11.618;2023-08-06T12:35:09;0.10;;;0.10;;
25915;SDS011;13719;48.188;11.618;2023-08-06T12:37:37;2.85;;;0.32;;
25915;SDS011;13719;48.188;11.618;2023-08-06T12:40:06;0.30;;;0.10;;
25915;SDS011;13719;48.188;11.618;2023-08-06T12:42:55;0.10;;;0.10;;
25915;SDS011;13719;48.188;11.618;2023-08-06T12:45:25;0.20;;;0.10;;
25915;SDS011;13719;48.188;11.618;2023-08-06T12:47:55;0.10;;;0.10;;
25915;SDS011;13719;48.188;11.618;2023-08-06T12:50:23;0.20;;;0.20;;
25915;SDS011;13719;48.188;11.618;2023-08-06T12:52:52;0.10;;;0.10;;
25915;SDS011;13719;48.188;11.618;2023-08-06T12:55:20;3.00;;;0.22;;
25915;SDS011;13719;48.188;11.618;2023-08-06T12:57:48;0.20;;;0.20;;
25915;SDS011;13719;48.188;11.618;2023-08-06T13:00:24;0.28;;;0.17;;
25915;SDS011;13719;48.188;11.618;2023-08-06T13:02:52;0.10;;;0.10;;
25915;SDS011;13719;48.188;11.618;2023-08-06T13:05:22;0.52;;;0.20;;
25915;SDS011;13719;48.188;11.618;2023-08-06T13:07:51;0.20;;;0.10;;
25915;SDS011;13719;48.188;11.618;2023-08-06T13:10:19;0.85;;;0.10;;
25915;SDS011;13719;48.188;11.618;2023-08-06T13:12:48;0.10;;;0.10;;
25915;SDS011;13719;48.188;11.618;2023-08-06T13:15:16;0.00;;;0.00;;
25915;SDS011;13719;48.188;11.618;2023-08-06T13:17:47;0.00;;;0.00;;
25915;SDS011;13719;48.188;11.618;2023-08-06T13:20:15;0.10;;;0.10;;
25915;SDS011;13719;48.188;11.618;2023-08-06T13:22:47;0.00;;;0.00;;
25915;SDS011;13719;48.188;11.618;2023-08-06T13:25:22;0.20;;;0.10;;
25915;SDS011;13719;48.188;11.618;2023-08-06T13:27:50;0.47;;;0.20;;
25915;SDS011;13719;48.188;11.618;2023-08-06T13:30:19;0.15;;;0.10;;
25915;SDS011;13719;48.188;11.618;2023-08-06T13:32:49;0.10;;;0.10;;
25915;SDS011;13719;48.188;11.618;2023-08-06T13:35:18;0.45;;;0.10;;
25915;SDS011;13719;48.188;11.618;2023-08-06T13:37:47;0.47;;;0.10;;
25915;SDS011;13719;48.188;11.618;2023-08-06T13:40:16;0.98;;;0.17;;
25915;SDS011;13719;48.188;11.618;2023-08-06T13:42:44;1.13;;;0.20;;
25915;SDS011;13719;48.188;11.618;2023-08-06T13:45:12;0.10;;;0.10;;
25915;SDS011;13719;48.188;11.618;2023-08-06T13:47:41;0.10;;;0.10;;
25915;SDS011;13719;48.188;11.618;2023-08-06T13:50:10;0.17;;;0.10;;
25915;SDS011;13719;48.188;11.618;2023-08-06T13:52:38;0.32;;;0.05;;
25915;SDS011;13719;48.188;11.618;2023-08-06T13:55:08;0.20;;;0.10;;
25915;SDS011;13719;48.188;11.618;2023-08-06T13:57:37;0.10;;;0.10;;
25915;SDS011;13719;48.188;11.618;2023-08-06T14:00:05;0.20;;;0.20;;
25915;SDS011;13719;48.188;11.618;2023-08-06T14:02:34;0.10;;;0.10;;
25915;SDS011;13719;48.188;11.618;2023-08-06T14:05:03;0.70;;;0.20;;
25915;SDS011;13719;48.188;11.618;2023-08-06T14:07:31;0.77;;;0.10;;
25915;SDS011;13719;48.188;11.618;2023-08-06T14:09:59;0.20;;;0.20;;
25915;SDS011;13719;48.188;11.618;2023-08-06T14:12:29;2.38;;;0.20;;
25915;SDS011;13719;48.188;11.618;2023-08-06T14:14:58;0.25;;;0.10;;
25915;SDS011;13719;48.188;11.618;2023-08-06T14:17:26;0.15;;;0.10;;
25915;SDS011;13719;48.188;11.618;2023-08-06T14:19:55;0.22;;;0.00;;
25915;SDS011;13719;48.188;11.618;2023-08-06T14:22:23;0.10;;;0.10;;
25915;SDS011;13719;48.188;11.618;2023-08-06T14:24:52;0.17;;;0.10;;
25915;SDS011;13719;48.188;11.618;2023-08-06T14:27:21;0.60;;;0.20;;
25915;SDS011;13719;48.188;11.618;2023-08-06T14:29:51;1.30;;;0.20;;
25915;SDS011;13719;48.188;11.618;2023-08-06T14:32:20;0.45;;;0.20;;
25915;SDS011;13719;48.188;11.618;2023-08-06T14:34:48;0.15;;;0.10;;
25915;SDS011;13719;48.188;11.618;2023-08-06T14:37:17;0.10;;;0.10;;
25915;SDS011;13719;48.188;11.618;2023-08-06T14:39:45;0.80;;;0.10;;
25915;SDS011;13719;48.188;11.618;2023-08-06T14:42:14;0.45;;;0.20;;
25915;SDS011;13719;48.188;11.618;2023-08-06T14:44:42;0.30;;;0.20;;
25915;SDS011;13719;48.188;11.618;2023-08-06T14:47:12;0.20;;;0.20;;